Time;durP1;ratioP1;P1;durP2;ratioP2;P2;SDS_P1;SDS_P2;PMS_P1;PMS_P2;Temp;Humidity;BMP_temperature;BMP_pressure;BME280_temperature;BME280_humidity;BME280_pressure;Samples;Min_cycle;Max_cycle;Signal;HPM_P1;HPM_P2
2023/06/29 00:01:08;;;;;;;1999.90;999.90;;;23.00;87.10;;;;;;5053932;28;20025;-69
2023/06/29 00:03:35;;;;;;;1999.90;999.90;;;23.10;86.80;;;;;;5056682;28;20563;-69
2023/06/29 00:06:03;;;;;;;1999.90;999.90;;;23.10;86.10;;;;;;5049881;28;20052;-69
2023/06/29 00:08:35;;;;;;;1999.90;999.90;;;23.20;85.80;;;;;;5056824;28;20029;-69
2023/06/29 00:11:07;;;;;;;1999.90;999.90;;;23.40;85.60;;;;;;5048659;28;20033;-68
2023/06/29 00:13:35;;;;;;;1999.90;999.90;;;23.40;86.80;;;;;;5037781;28;20387;-69
2023/06/29 00:16:03;;;;;;;1999.90;999.90;;;23.50;85.50;;;;;;5053705;28;20033;-70
2023/06/29 00:18:33;;;;;;;1999.90;999.90;;;23.90;83.60;;;;;;5054574;28;20559;-69
2023/06/29 00:21:01;;;;;;;1999.90;999.90;;;23.80;84.20;;;;;;5058866;28;20048;-70
2023/06/29 00:23:28;;;;;;;1999.90;999.90;;;23.90;83.50;;;;;;5056721;28;20037;-70
2023/06/29 00:25:56;;;;;;;1999.90;999.90;;;24.00;82.60;;;;;;5050425;28;20480;-69
2023/06/29 00:28:24;;;;;;;1999.90;999.90;;;24.20;80.60;;;;;;5054329;28;20067;-68
2023/06/29 00:30:51;;;;;;;1999.90;999.90;;;24.40;79.00;;;;;;5046627;28;20021;-69
2023/06/29 00:33:18;;;;;;;1999.90;999.90;;;24.60;77.50;;;;;;5049969;28;20055;-70
2023/06/29 00:35:46;;;;;;;1999.90;999.90;;;24.60;78.50;;;;;;5045867;28;20061;-71
2023/06/29 00:38:13;;;;;;;1999.90;999.90;;;24.70;77.60;;;;;;5056644;28;20029;-68
2023/06/29 00:40:40;;;;;;;1999.90;999.90;;;24.70;77.50;;;;;;5052640;28;20024;-70
2023/06/29 00:43:08;;;;;;;1999.90;999.90;;;24.90;76.80;;;;;;5048966;28;20040;-71
2023/06/29 00:45:35;;;;;;;1999.90;999.90;;;25.10;76.10;;;;;;5044467;28;20024;-69
2023/06/29 00:48:03;;;;;;;1999.90;999.90;;;25.30;76.30;;;;;;5048494;28;20396;-69
2023/06/29 00:50:30;;;;;;;1999.90;999.90;;;25.20;76.50;;;;;;5051530;28;20472;-70
2023/06/29 00:52:58;;;;;;;1999.90;999.90;;;25.40;76.00;;;;;;5061332;28;20073;-71
2023/06/29 00:55:25;;;;;;;1999.90;999.90;;;25.40;76.10;;;;;;5047155;28;20036;-67
2023/06/29 00:57:52;;;;;;;1999.90;999.90;;;25.70;74.80;;;;;;5044875;28;20037;-69
2023/06/29 01:00:20;;;;;;;1999.90;999.90;;;25.80;75.80;;;;;;5048059;28;20067;-70
2023/06/29 01:02:48;;;;;;;1999.90;999.90;;;26.00;74.30;;;;;;5049783;28;20037;-70
2023/06/29 01:05:17;;;;;;;1999.90;999.90;;;26.20;74.70;;;;;;5040175;28;20114;-69
2023/06/29 01:08:09;;;;;;;1999.90;999.90;;;26.40;74.80;;;;;;5049504;28;20032;-71
2023/06/29 01:10:37;;;;;;;1999.90;999.90;;;26.90;73.60;;;;;;5042269;28;20112;-70
2023/06/29 01:13:06;;;;;;;1999.90;999.90;;;26.90;72.10;;;;;;5062359;28;20063;-70
2023/06/29 01:15:35;;;;;;;1999.90;999.90;;;26.90;72.70;;;;;;5047349;28;20038;-69
2023/06/29 01:18:05;;;;;;;1999.90;999.90;;;27.00;71.90;;;;;;5048692;28;20033;-71
2023/06/29 01:20:33;;;;;;;1999.90;999.90;;;27.10;72.90;;;;;;5050568;28;20029;-71
2023/06/29 01:23:14;;;;;;;1999.90;999.90;;;27.10;72.50;;;;;;5046977;28;20453;-70
2023/06/29 01:25:42;;;;;;;1999.90;999.90;;;27.10;69.60;;;;;;5040148;28;20028;-69
2023/06/29 01:28:10;;;;;;;1999.90;999.90;;;27.00;71.60;;;;;;5048927;28;20039;-70
2023/06/29 01:30:48;;;;;;;1999.90;999.90;;;26.90;71.10;;;;;;5047345;28;20032;-70
2023/06/29 01:33:21;;;;;;;1999.90;999.90;;;27.00;70.40;;;;;;5064140;28;20039;-70
2023/06/29 01:35:53;;;;;;;1999.90;999.90;;;27.00;69.80;;;;;;5048643;28;20048;-70
2023/06/29 01:38:33;;;;;;;1999.90;999.90;;;27.00;70.50;;;;;;5045229;28;20116;-71
2023/06/29 01:41:03;;;;;;;1999.90;999.90;;;27.10;70.50;;;;;;5044658;28;20025;-73
2023/06/29 01:43:31;;;;;;;1999.90;999.90;;;26.90;71.60;;;;;;5054623;28;20524;-75
2023/06/29 01:45:59;;;;;;;1999.90;999.90;;;26.10;71.80;;;;;;5047490;28;20025;-75
2023/06/29 01:48:26;;;;;;;1999.90;999.90;;;26.10;72.50;;;;;;5053018;28;20036;-74
2023/06/29 01:50:54;;;;;;;1999.90;999.90;;;26.40;71.00;;;;;;5047650;28;20060;-74
2023/06/29 01:53:22;;;;;;;1999.90;999.90;;;26.70;71.70;;;;;;5051877;28;20040;-75
2023/06/29 01:55:49;;;;;;;1999.90;999.90;;;27.10;71.90;;;;;;5047434;28;20091;-75
2023/06/29 01:58:16;;;;;;;1999.90;999.90;;;27.20;71.10;;;;;;5051815;28;20040;-76
2023/06/29 02:00:44;;;;;;;1999.90;999.90;;;27.50;70.40;;;;;;5047629;28;20028;-73
2023/06/29 02:03:11;;;;;;;1999.90;999.90;;;27.60;69.80;;;;;;5042610;28;20040;-76
2023/06/29 02:05:38;;;;;;;1999.90;999.90;;;27.40;69.40;;;;;;5050032;28;20037;-73
2023/06/29 02:08:06;;;;;;;1999.90;999.90;;;27.10;69.70;;;;;;5048912;28;20044;-75
2023/06/29 02:10:33;;;;;;;1999.90;999.90;;;26.80;70.30;;;;;;5046193;28;20513;-76
2023/06/29 02:13:00;;;;;;;1999.90;999.90;;;26.70;69.80;;;;;;5048255;28;20037;-74
2023/06/29 02:15:28;;;;;;;1999.90;999.90;;;26.70;70.40;;;;;;5054684;28;20028;-75
2023/06/29 02:17:55;;;;;;;1999.90;999.90;;;26.90;70.20;;;;;;5060741;28;20120;-75
2023/06/29 02:20:22;;;;;;;1999.90;999.90;;;27.00;69.10;;;;;;5040663;28;20040;-71
2023/06/29 02:22:50;;;;;;;1999.90;999.90;;;26.90;70.00;;;;;;5053347;28;20045;-73
2023/06/29 02:25:18;;;;;;;1999.90;999.90;;;26.90;70.10;;;;;;5054726;28;20013;-75
2023/06/29 02:27:45;;;;;;;1999.90;999.90;;;26.80;68.90;;;;;;5055281;28;20123;-74
2023/06/29 02:30:13;;;;;;;1999.90;999.90;;;26.70;69.50;;;;;;5048695;28;20150;-76
2023/06/29 02:32:40;;;;;;;1999.90;999.90;;;26.50;69.20;;;;;;5056597;28;20032;-75
2023/06/29 02:35:08;;;;;;;1999.90;999.90;;;26.20;69.80;;;;;;5052477;28;20075;-74
2023/06/29 02:37:35;;;;;;;1999.90;999.90;;;26.20;70.40;;;;;;5054112;28;20032;-74
2023/06/29 02:40:03;;;;;;;1999.90;999.90;;;25.80;68.70;;;;;;5049080;28;20383;-72
2023/06/29 02:42:30;;;;;;;1999.90;999.90;;;25.80;70.60;;;;;;5050489;28;20575;-73
2023/06/29 02:44:58;;;;;;;1999.90;999.90;;;25.80;69.60;;;;;;5051817;28;20025;-74
2023/06/29 02:47:25;;;;;;;1999.90;999.90;;;25.50;71.50;;;;;;5053502;28;20106;-72
2023/06/29 02:49:54;;;;;;;1999.90;999.90;;;25.20;71.60;;;;;;5053260;28;20033;-75
2023/06/29 02:52:22;;;;;;;1999.90;999.90;;;25.00;71.30;;;;;;5051104;28;20048;-70
2023/06/29 02:54:50;;;;;;;1999.90;999.90;;;24.90;70.90;;;;;;5047170;28;20492;-71
2023/06/29 02:57:17;;;;;;;1999.90;999.90;;;24.80;70.70;;;;;;5054905;28;20100;-72
2023/06/29 02:59:44;;;;;;;1999.90;999.90;;;24.50;70.90;;;;;;5049703;28;20031;-74
2023/06/29 03:02:12;;;;;;;1999.90;999.90;;;24.20;70.30;;;;;;5049953;28;20071;-73
2023/06/29 03:04:39;;;;;;;1999.90;999.90;;;24.00;71.20;;;;;;5053331;28;20035;-73
2023/06/29 03:07:06;;;;;;;1999.90;999.90;;;23.80;72.20;;;;;;5053999;28;20387;-75
2023/06/29 03:09:34;;;;;;;1999.90;999.90;;;23.70;71.80;;;;;;5051880;28;20029;-73
2023/06/29 03:12:01;;;;;;;1999.90;999.90;;;23.40;72.20;;;;;;5048471;28;20498;-75
2023/06/29 03:14:28;;;;;;;1999.90;999.90;;;22.90;72.50;;;;;;5054966;28;20356;-73
2023/06/29 03:16:56;;;;;;;1999.90;999.90;;;22.60;72.50;;;;;;5057444;28;20037;-72
2023/06/29 03:19:23;;;;;;;1999.90;999.90;;;22.20;73.10;;;;;;5053052;28;20978;-72
2023/06/29 03:21:50;;;;;;;1999.90;999.90;;;22.00;73.50;;;;;;5045123;28;20095;-76
2023/06/29 03:24:18;;;;;;;1999.90;999.90;;;21.80;74.50;;;;;;5047312;28;20033;-74
2023/06/29 03:26:45;;;;;;;1999.90;999.90;;;21.60;73.70;;;;;;5055776;28;20040;-73
2023/06/29 03:29:12;;;;;;;1999.90;999.90;;;21.30;74.80;;;;;;5056081;28;20093;-70
2023/06/29 03:31:40;;;;;;;1999.90;999.90;;;21.00;75.60;;;;;;5055715;28;20129;-75
2023/06/29 03:34:08;;;;;;;1999.90;999.90;;;20.50;75.20;;;;;;5057701;28;20029;-70
2023/06/29 03:36:35;;;;;;;1999.90;999.90;;;19.90;75.90;;;;;;5052825;28;20052;-72
2023/06/29 03:39:03;;;;;;;1999.90;999.90;;;19.50;76.80;;;;;;5054830;28;20025;-73
2023/06/29 03:41:31;;;;;;;1999.90;999.90;;;19.10;77.90;;;;;;5053854;28;20103;-69
2023/06/29 03:44:00;;;;;;;1999.90;999.90;;;18.60;76.40;;;;;;5056056;28;20461;-71
2023/06/29 03:46:27;;;;;;;1999.90;999.90;;;18.20;77.30;;;;;;5044807;28;20130;-71
2023/06/29 03:48:54;;;;;;;1999.90;999.90;;;18.00;79.50;;;;;;5058134;28;20064;-70
2023/06/29 03:51:22;;;;;;;1999.90;999.90;;;17.80;79.80;;;;;;5051006;28;20033;-74
2023/06/29 03:53:49;;;;;;;1999.90;999.90;;;17.60;81.00;;;;;;5050029;28;20059;-76
2023/06/29 03:56:16;;;;;;;1999.90;999.90;;;17.40;81.10;;;;;;5052315;28;20044;-75
2023/06/29 03:58:44;;;;;;;1999.90;999.90;;;17.30;81.00;;;;;;5052207;28;20033;-74
2023/06/29 04:01:11;;;;;;;1999.90;999.90;;;17.10;81.40;;;;;;5048337;28;21342;-72
2023/06/29 04:03:38;;;;;;;1999.90;999.90;;;16.90;81.30;;;;;;5056771;28;20047;-74
2023/06/29 04:06:05;;;;;;;1999.90;999.90;;;16.70;81.20;;;;;;5051286;28;20086;-74
2023/06/29 04:08:33;;;;;;;1999.90;999.90;;;16.60;80.70;;;;;;5058103;28;20032;-73
2023/06/29 04:11:01;;;;;;;1999.90;999.90;;;16.50;81.50;;;;;;5048431;28;20511;-72
2023/06/29 04:13:29;;;;;;;1999.90;999.90;;;16.50;80.70;;;;;;5056890;28;20025;-76
2023/06/29 04:15:56;;;;;;;1999.90;999.90;;;16.50;82.70;;;;;;5047763;28;20024;-74
2023/06/29 04:18:23;;;;;;;1999.90;999.90;;;16.40;82.80;;;;;;5044956;28;20024;-76
2023/06/29 04:20:53;;;;;;;1999.90;999.90;;;16.30;83.30;;;;;;5047130;28;20683;-75
2023/06/29 04:23:20;;;;;;;1999.90;999.90;;;16.30;83.60;;;;;;5058399;28;20041;-75
2023/06/29 04:25:47;;;;;;;1999.90;999.90;;;16.10;83.40;;;;;;5047145;28;20037;-73
2023/06/29 04:28:15;;;;;;;1999.90;999.90;;;16.00;83.80;;;;;;5042190;28;20029;-73
2023/06/29 04:30:43;;;;;;;1999.90;999.90;;;15.90;83.70;;;;;;5044561;28;20036;-73
2023/06/29 04:33:11;;;;;;;1999.90;999.90;;;15.80;83.70;;;;;;5047219;28;20418;-73
2023/06/29 04:35:42;;;;;;;1999.90;999.90;;;15.80;84.30;;;;;;5049847;28;20150;-72
2023/06/29 04:38:10;;;;;;;1999.90;999.90;;;15.70;84.10;;;;;;5049779;28;20033;-75
2023/06/29 04:40:38;;;;;;;1999.90;999.90;;;15.70;84.70;;;;;;5049130;28;20036;-73
2023/06/29 04:43:09;;;;;;;1999.90;999.90;;;15.60;85.70;;;;;;5049272;28;20043;-76
2023/06/29 04:45:36;;;;;;;1999.90;999.90;;;15.60;85.20;;;;;;5043838;28;20025;-73
2023/06/29 04:48:04;;;;;;;1999.90;999.90;;;15.50;84.80;;;;;;5050143;28;20062;-73
2023/06/29 04:50:35;;;;;;;1999.90;999.90;;;15.50;85.50;;;;;;5049814;28;20021;-75
2023/06/29 04:53:12;;;;;;;1999.90;999.90;;;15.40;85.90;;;;;;5046762;28;20174;-76
2023/06/29 04:55:39;;;;;;;1999.90;999.90;;;15.30;86.00;;;;;;5051417;28;20092;-71
2023/06/29 04:58:07;;;;;;;1999.90;999.90;;;15.30;85.80;;;;;;5049868;28;20078;-73
2023/06/29 05:00:34;;;;;;;1999.90;999.90;;;15.30;86.00;;;;;;5047195;28;20029;-72
2023/06/29 05:03:01;;;;;;;1999.90;999.90;;;15.20;86.30;;;;;;5052080;28;20037;-74
2023/06/29 05:05:32;;;;;;;1999.90;999.90;;;15.10;85.50;;;;;;5052257;28;20051;-73
2023/06/29 05:07:59;;;;;;;1999.90;999.90;;;15.10;86.50;;;;;;5056639;28;20056;-72
2023/06/29 05:10:26;;;;;;;1999.90;999.90;;;15.10;86.10;;;;;;5049902;28;20479;-72
2023/06/29 05:12:54;;;;;;;1999.90;999.90;;;15.00;87.00;;;;;;5049941;28;20123;-70
2023/06/29 05:15:21;;;;;;;1999.90;999.90;;;14.90;86.60;;;;;;5050320;28;20067;-71
2023/06/29 05:17:48;;;;;;;1999.90;999.90;;;14.90;86.40;;;;;;5052649;28;20037;-74
2023/06/29 05:20:17;;;;;;;1999.90;999.90;;;14.80;85.40;;;;;;5049303;28;20064;-72
2023/06/29 05:22:44;;;;;;;1999.90;999.90;;;14.70;86.20;;;;;;5059255;28;20040;-75
2023/06/29 05:25:13;;;;;;;1999.90;999.90;;;14.70;86.90;;;;;;5047370;28;20030;-73
2023/06/29 05:27:40;;;;;;;1999.90;999.90;;;14.70;86.60;;;;;;5059472;28;20020;-72
2023/06/29 05:30:11;;;;;;;1999.90;999.90;;;14.60;86.60;;;;;;5052106;28;20017;-71
2023/06/29 05:32:39;;;;;;;1999.90;999.90;;;14.60;86.80;;;;;;5058021;28;20032;-71
2023/06/29 05:35:06;;;;;;;1999.90;999.90;;;14.60;86.20;;;;;;5047499;28;20021;-70
2023/06/29 05:37:34;;;;;;;1999.90;999.90;;;14.50;86.10;;;;;;5051581;28;20387;-74
2023/06/29 05:40:01;;;;;;;1999.90;999.90;;;14.50;87.00;;;;;;5050657;28;20549;-72
2023/06/29 05:42:29;;;;;;;1999.90;999.90;;;14.40;86.90;;;;;;5058784;28;20033;-71
2023/06/29 05:44:56;;;;;;;1999.90;999.90;;;14.40;86.70;;;;;;5042473;28;20132;-72
2023/06/29 05:47:24;;;;;;;1999.90;999.90;;;14.30;87.10;;;;;;5052503;28;20032;-71
2023/06/29 05:49:51;;;;;;;1999.90;999.90;;;14.30;87.30;;;;;;5055411;28;20157;-71
2023/06/29 05:52:18;;;;;;;1999.90;999.90;;;14.20;87.50;;;;;;5050903;28;20021;-71
2023/06/29 05:54:45;;;;;;;1999.90;999.90;;;14.20;87.40;;;;;;5045643;28;20039;-70
2023/06/29 05:57:13;;;;;;;1999.90;999.90;;;14.10;87.60;;;;;;5056887;28;20025;-70
2023/06/29 05:59:40;;;;;;;1999.90;999.90;;;14.10;86.80;;;;;;5047131;28;20029;-70
2023/06/29 06:02:08;;;;;;;1999.90;999.90;;;14.10;86.90;;;;;;5048789;28;20051;-71
2023/06/29 06:04:35;;;;;;;1999.90;999.90;;;14.10;87.30;;;;;;5052406;28;20103;-72
2023/06/29 06:07:03;;;;;;;1999.90;999.90;;;14.10;86.60;;;;;;5057437;28;20068;-73
2023/06/29 06:09:31;;;;;;;1999.90;999.90;;;14.20;86.70;;;;;;5048484;28;20025;-73
2023/06/29 06:11:58;;;;;;;1999.90;999.90;;;14.20;87.10;;;;;;5063775;28;20025;-74
2023/06/29 06:14:25;;;;;;;1999.90;999.90;;;14.30;87.70;;;;;;5066267;28;20028;-74
2023/06/29 06:16:53;;;;;;;1999.90;999.90;;;14.40;87.30;;;;;;5059337;28;20107;-72
2023/06/29 06:19:20;;;;;;;1999.90;999.90;;;14.50;87.10;;;;;;5064493;28;20020;-72
2023/06/29 06:21:48;;;;;;;1999.90;999.90;;;14.60;86.90;;;;;;5046036;28;20043;-72
2023/06/29 06:24:15;;;;;;;1999.90;999.90;;;14.60;86.90;;;;;;5050916;28;20029;-73
2023/06/29 06:26:42;;;;;;;1999.90;999.90;;;14.60;87.40;;;;;;5059729;28;20044;-73
2023/06/29 06:29:10;;;;;;;1999.90;999.90;;;14.60;87.80;;;;;;5054971;28;20025;-75
2023/06/29 06:31:37;;;;;;;1999.90;999.90;;;14.60;87.50;;;;;;5056193;28;20016;-74
2023/06/29 06:34:04;;;;;;;1999.90;999.90;;;14.50;87.40;;;;;;5058085;28;20100;-72
2023/06/29 06:36:34;;;;;;;1999.90;999.90;;;14.40;87.20;;;;;;5053838;28;20835;-70
2023/06/29 06:39:02;;;;;;;1999.90;999.90;;;14.20;87.20;;;;;;5057099;28;20120;-75
2023/06/29 06:41:30;;;;;;;1999.90;999.90;;;14.00;87.90;;;;;;5049833;28;20029;-71
2023/06/29 06:43:57;;;;;;;1999.90;999.90;;;13.80;87.00;;;;;;5055847;28;20036;-76
2023/06/29 06:46:24;;;;;;;1999.90;999.90;;;13.70;87.00;;;;;;5055075;28;20020;-74
2023/06/29 06:48:52;;;;;;;1999.90;999.90;;;13.50;87.60;;;;;;5055630;28;20468;-71
2023/06/29 06:51:20;;;;;;;1999.90;999.90;;;13.30;88.00;;;;;;5048182;28;20159;-73
2023/06/29 06:53:47;;;;;;;1999.90;999.90;;;13.20;88.00;;;;;;5062664;28;20068;-75
2023/06/29 06:56:14;;;;;;;1999.90;999.90;;;13.10;87.90;;;;;;5051220;28;20054;-74
2023/06/29 06:58:42;;;;;;;1999.90;999.90;;;12.90;88.00;;;;;;5054179;28;20022;-73
2023/06/29 07:01:11;;;;;;;1999.90;999.90;;;12.80;88.00;;;;;;5053451;28;20037;-72
2023/06/29 07:03:38;;;;;;;1999.90;999.90;;;12.70;88.00;;;;;;5060103;28;20040;-73
2023/06/29 07:06:06;;;;;;;1999.90;999.90;;;12.60;88.60;;;;;;5049792;28;20037;-74
2023/06/29 07:08:35;;;;;;;1999.90;999.90;;;12.50;88.60;;;;;;5052389;28;20881;-73
2023/06/29 07:11:03;;;;;;;1999.90;999.90;;;12.40;88.30;;;;;;5053242;28;20028;-71
2023/06/29 07:13:31;;;;;;;1999.90;999.90;;;12.40;88.40;;;;;;5059545;28;20027;-75
2023/06/29 07:15:58;;;;;;;1999.90;999.90;;;12.30;88.30;;;;;;5053601;28;20027;-74
2023/06/29 07:18:26;;;;;;;1999.90;999.90;;;12.30;88.60;;;;;;5054823;28;20022;-74
2023/06/29 07:20:53;;;;;;;1999.90;999.90;;;12.20;89.30;;;;;;5052295;28;20116;-73
2023/06/29 07:23:20;;;;;;;1999.90;999.90;;;12.10;89.40;;;;;;5060895;28;20376;-73
2023/06/29 07:25:50;;;;;;;1999.90;999.90;;;11.90;89.70;;;;;;5054493;28;20032;-74
2023/06/29 07:28:17;;;;;;;1999.90;999.90;;;11.90;89.50;;;;;;5055292;28;20032;-74
2023/06/29 07:30:45;;;;;;;1999.90;999.90;;;11.80;89.80;;;;;;5052131;28;20729;-73
2023/06/29 07:33:12;;;;;;;1999.90;999.90;;;11.70;90.10;;;;;;5062041;28;20471;-72
2023/06/29 07:35:39;;;;;;;1999.90;999.90;;;11.50;90.10;;;;;;5054143;28;20040;-71
2023/06/29 07:38:06;;;;;;;1999.90;999.90;;;11.50;90.00;;;;;;5053476;28;20434;-73
2023/06/29 07:40:34;;;;;;;1999.90;999.90;;;11.50;89.40;;;;;;5056366;28;20036;-73
2023/06/29 07:43:01;;;;;;;1999.90;999.90;;;11.50;89.40;;;;;;5053120;28;20040;-73
2023/06/29 07:45:28;;;;;;;1999.90;999.90;;;11.40;89.30;;;;;;5048324;28;20025;-73
2023/06/29 07:47:56;;;;;;;1999.90;999.90;;;11.30;89.30;;;;;;5050153;28;20048;-74
2023/06/29 07:50:23;;;;;;;1999.90;999.90;;;11.30;89.40;;;;;;5045270;28;20420;-73
2023/06/29 07:52:50;;;;;;;1999.90;999.90;;;11.20;89.80;;;;;;5052372;28;20496;-76
2023/06/29 07:55:17;;;;;;;1999.90;999.90;;;11.20;89.60;;;;;;5053778;28;20092;-76
2023/06/29 07:57:46;;;;;;;1999.90;999.90;;;11.10;89.50;;;;;;5051870;28;20034;-76
2023/06/29 08:00:14;;;;;;;1999.90;999.90;;;11.10;89.80;;;;;;5053724;28;20016;-75
2023/06/29 08:02:42;;;;;;;1999.90;999.90;;;11.00;90.00;;;;;;5058510;28;20543;-75
2023/06/29 08:05:14;;;;;;;1999.90;999.90;;;10.90;90.10;;;;;;5051815;28;20048;-72
2023/06/29 08:07:42;;;;;;;1999.90;999.90;;;10.90;90.10;;;;;;5053730;28;20025;-71
2023/06/29 08:10:10;;;;;;;1999.90;999.90;;;10.80;90.20;;;;;;5051442;28;20029;-73
2023/06/29 08:12:38;;;;;;;1999.90;999.90;;;10.80;90.10;;;;;;5049251;28;20025;-74
2023/06/29 08:15:05;;;;;;;1999.90;999.90;;;10.70;90.30;;;;;;5053277;28;20109;-72
2023/06/29 08:17:33;;;;;;;1999.90;999.90;;;10.60;90.60;;;;;;5051012;28;20713;-70
2023/06/29 08:20:00;;;;;;;1999.90;999.90;;;10.60;90.60;;;;;;5060965;28;20040;-71
2023/06/29 08:22:28;;;;;;;1999.90;999.90;;;10.50;90.40;;;;;;5048131;28;20044;-76
2023/06/29 08:24:55;;;;;;;1999.90;999.90;;;10.60;90.30;;;;;;5051692;28;20593;-74
2023/06/29 08:27:23;;;;;;;1999.90;999.90;;;10.50;90.40;;;;;;5050136;28;20036;-70
2023/06/29 08:29:52;;;;;;;1999.90;999.90;;;10.50;90.50;;;;;;5051476;28;20024;-70
2023/06/29 08:32:19;;;;;;;1999.90;999.90;;;10.40;90.60;;;;;;5057465;28;20024;-72
2023/06/29 08:34:47;;;;;;;1999.90;999.90;;;10.30;91.10;;;;;;5048496;28;20036;-74
2023/06/29 08:37:15;;;;;;;1999.90;999.90;;;10.20;91.00;;;;;;5055209;28;20113;-73
2023/06/29 08:39:42;;;;;;;1999.90;999.90;;;10.10;91.10;;;;;;5058144;28;20094;-75
2023/06/29 08:42:10;;;;;;;1999.90;999.90;;;10.00;91.30;;;;;;5061676;28;20028;-74
2023/06/29 08:44:37;;;;;;;1999.90;999.90;;;10.00;91.40;;;;;;5056994;28;20086;-75
2023/06/29 08:47:06;;;;;;;1999.90;999.90;;;9.90;91.60;;;;;;5060290;28;20111;-78
2023/06/29 08:49:39;;;;;;;1999.90;999.90;;;9.90;91.60;;;;;;5052673;28;20024;-74
2023/06/29 08:52:10;;;;;;;1999.90;999.90;;;9.80;91.70;;;;;;5058713;28;20478;-73
2023/06/29 08:54:39;;;;;;;1999.90;999.90;;;9.70;92.00;;;;;;5054359;28;20021;-75
2023/06/29 08:57:07;;;;;;;1999.90;999.90;;;9.70;92.10;;;;;;5055638;28;20479;-74
2023/06/29 08:59:36;;;;;;;1999.90;999.90;;;9.60;91.90;;;;;;5058444;28;20021;-75
2023/06/29 09:02:06;;;;;;;1999.90;999.90;;;9.60;92.20;;;;;;5062230;28;20029;-77
2023/06/29 09:04:33;;;;;;;1999.90;999.90;;;9.50;92.30;;;;;;5051938;28;20029;-78
2023/06/29 09:07:03;;;;;;;1999.90;999.90;;;9.50;92.20;;;;;;5047683;28;20070;-74
2023/06/29 09:09:30;;;;;;;1999.90;999.90;;;9.40;92.30;;;;;;5055642;28;20043;-75
2023/06/29 09:12:00;;;;;;;1999.90;999.90;;;9.30;92.70;;;;;;5055768;28;20092;-77
2023/06/29 09:14:35;;;;;;;1999.90;999.90;;;9.20;92.90;;;;;;5054570;28;20068;-76
2023/06/29 09:17:11;;;;;;;1999.90;999.90;;;9.10;93.20;;;;;;5053525;28;20083;-73
2023/06/29 09:19:42;;;;;;;1999.90;999.90;;;9.10;92.90;;;;;;5054396;28;20045;-74
2023/06/29 09:22:09;;;;;;;1999.90;999.90;;;9.10;93.00;;;;;;5052911;28;20033;-73
2023/06/29 09:24:36;;;;;;;1999.90;999.90;;;9.10;93.10;;;;;;5055301;28;20041;-74
2023/06/29 09:27:04;;;;;;;1999.90;999.90;;;9.00;93.10;;;;;;5067358;28;20120;-75
2023/06/29 09:29:40;;;;;;;1999.90;999.90;;;9.00;93.20;;;;;;5063834;28;20412;-78
2023/06/29 09:32:14;;;;;;;1999.90;999.90;;;9.10;93.10;;;;;;5058590;28;20032;-69
2023/06/29 09:34:46;;;;;;;1999.90;999.90;;;9.10;93.00;;;;;;5048396;28;20164;-71
2023/06/29 09:37:16;;;;;;;1999.90;999.90;;;9.10;92.90;;;;;;5060526;28;20380;-70
2023/06/29 09:39:58;;;;;;;1999.90;999.90;;;9.10;92.90;;;;;;5049419;28;20136;-71
2023/06/29 09:42:31;;;;;;;1999.90;999.90;;;9.10;92.90;;;;;;5055287;28;20425;-74
2023/06/29 09:45:02;;;;;;;1999.90;999.90;;;9.00;92.90;;;;;;5052812;28;20029;-75
2023/06/29 09:47:30;;;;;;;1999.90;999.90;;;9.00;92.90;;;;;;5055201;28;20092;-77
2023/06/29 09:49:58;;;;;;;1999.90;999.90;;;9.00;93.00;;;;;;5050118;28;20505;-75
2023/06/29 09:52:25;;;;;;;1999.90;999.90;;;9.00;93.20;;;;;;5051252;28;20086;-73
2023/06/29 09:55:00;;;;;;;1999.90;999.90;;;8.90;93.10;;;;;;5056053;28;20033;-71
2023/06/29 09:57:28;;;;;;;1999.90;999.90;;;8.90;92.90;;;;;;5060406;28;20033;-71
2023/06/29 09:59:55;;;;;;;1999.90;999.90;;;8.90;93.10;;;;;;5052625;28;20024;-70
2023/06/29 10:02:23;;;;;;;1999.90;999.90;;;8.80;93.40;;;;;;5058526;28;20123;-71
2023/06/29 10:04:51;;;;;;;1999.90;999.90;;;8.80;93.20;;;;;;5054857;28;20402;-75
2023/06/29 10:07:19;;;;;;;1999.90;999.90;;;8.80;93.30;;;;;;5061538;28;20032;-76
2023/06/29 10:09:51;;;;;;;1999.90;999.90;;;8.80;93.50;;;;;;5052719;28;20388;-72
2023/06/29 10:12:18;;;;;;;1999.90;999.90;;;8.60;93.70;;;;;;5060120;28;20039;-73
2023/06/29 10:14:47;;;;;;;1999.90;999.90;;;8.50;93.80;;;;;;5058405;28;20033;-76
2023/06/29 10:17:44;;;;;;;1999.90;999.90;;;8.50;93.90;;;;;;5064915;28;20041;-78
2023/06/29 10:20:14;;;;;;;1999.90;999.90;;;8.40;94.00;;;;;;5056732;28;20033;-74
2023/06/29 10:22:43;;;;;;;1999.90;999.90;;;8.50;93.80;;;;;;5064313;28;20072;-71
2023/06/29 10:25:14;;;;;;;1999.90;999.90;;;8.50;93.80;;;;;;5057039;28;20028;-75
2023/06/29 10:27:42;;;;;;;1999.90;999.90;;;8.50;93.90;;;;;;5062469;28;20017;-71
2023/06/29 10:30:10;;;;;;;1999.90;999.90;;;8.60;93.50;;;;;;5059946;28;20029;-74
2023/06/29 10:32:38;;;;;;;1999.90;999.90;;;8.50;93.80;;;;;;5058830;28;20031;-75
2023/06/29 10:35:08;;;;;;;1999.90;999.90;;;8.50;93.80;;;;;;5057219;28;20537;-70
2023/06/29 10:37:46;;;;;;;1999.90;999.90;;;8.50;93.90;;;;;;5059445;28;20040;-76
2023/06/29 10:40:16;;;;;;;1999.90;999.90;;;8.40;93.70;;;;;;5056581;28;20013;-75
2023/06/29 10:42:43;;;;;;;1999.90;999.90;;;8.40;93.80;;;;;;5059027;28;20037;-78
2023/06/29 10:45:17;;;;;;;1999.90;999.90;;;8.40;94.00;;;;;;5062968;28;20030;-76
2023/06/29 10:48:04;;;;;;;1999.90;999.90;;;8.40;94.00;;;;;;5064401;28;20032;-75
2023/06/29 10:50:43;;;;;;;1999.90;999.90;;;8.40;94.10;;;;;;5059272;28;20044;-74
2023/06/29 10:53:16;;;;;;;1999.90;999.90;;;8.30;94.10;;;;;;5063946;28;20044;-76
2023/06/29 10:55:57;;;;;;;1999.90;999.90;;;8.30;94.60;;;;;;5058083;28;20037;-73
2023/06/29 10:58:37;;;;;;;1999.90;999.90;;;8.20;94.70;;;;;;5053261;28;20549;-74
2023/06/29 11:01:05;;;;;;;1999.90;999.90;;;8.10;95.00;;;;;;5055799;28;20357;-74
2023/06/29 11:03:34;;;;;;;1999.90;999.90;;;7.90;95.30;;;;;;5062297;28;20040;-79
2023/06/29 11:06:02;;;;;;;1999.90;999.90;;;7.90;95.90;;;;;;5054063;28;20133;-73
2023/06/29 11:08:32;;;;;;;1999.90;999.90;;;7.90;95.80;;;;;;5066622;28;20433;-73
2023/06/29 11:11:16;;;;;;;1999.90;999.90;;;7.80;95.90;;;;;;5051769;28;20020;-75
2023/06/29 11:13:45;;;;;;;1999.90;999.90;;;7.80;96.10;;;;;;5054361;28;20033;-77
2023/06/29 11:16:13;;;;;;;1999.90;999.90;;;7.70;96.50;;;;;;5047612;28;20514;-72
2023/06/29 11:18:49;;;;;;;1999.90;999.90;;;7.60;96.70;;;;;;5052110;28;20021;-72
2023/06/29 11:21:16;;;;;;;;;;;7.60;96.90;;;;;;5050011;28;20053;-73
2023/06/29 11:23:52;;;;;;;;;;;7.50;96.90;;;;;;5059228;28;19931;-74
2023/06/29 11:26:20;;;;;;;1999.90;999.90;;;7.40;97.20;;;;;;5053497;28;20382;-74
2023/06/29 11:28:51;;;;;;;1999.90;999.90;;;7.30;97.80;;;;;;5050044;28;20488;-70
2023/06/29 11:31:20;;;;;;;1999.90;999.90;;;7.20;98.40;;;;;;5058809;28;20056;-72
2023/06/29 11:33:52;;;;;;;1999.90;999.90;;;7.10;98.70;;;;;;5056251;28;20470;-72
2023/06/29 11:36:36;;;;;;;1999.90;999.90;;;7.00;99.10;;;;;;5055577;28;20057;-71
2023/06/29 11:39:11;;;;;;;1999.90;999.90;;;6.80;99.20;;;;;;5056251;28;20124;-75
2023/06/29 11:41:40;;;;;;;1999.90;999.90;;;6.70;99.50;;;;;;5056195;28;20455;-72
2023/06/29 11:44:08;;;;;;;1999.90;999.90;;;6.60;99.90;;;;;;5058083;28;20085;-73
2023/06/29 11:46:36;;;;;;;1999.90;999.90;;;6.50;99.90;;;;;;5050204;28;20434;-77
2023/06/29 11:49:05;;;;;;;1999.90;999.90;;;6.50;99.90;;;;;;5056197;28;20098;-70
2023/06/29 11:51:38;;;;;;;1999.90;999.90;;;6.40;99.90;;;;;;5051672;28;20033;-74
2023/06/29 11:54:07;;;;;;;1999.90;999.90;;;6.30;99.90;;;;;;5056067;28;20496;-69
2023/06/29 11:56:37;;;;;;;1999.90;999.90;;;6.30;99.90;;;;;;5055348;28;20431;-69
2023/06/29 11:59:17;;;;;;;1999.90;999.90;;;6.30;99.90;;;;;;5057150;28;20466;-71
2023/06/29 12:01:45;;;;;;;1999.90;999.90;;;6.30;99.90;;;;;;5055377;28;20021;-74
2023/06/29 12:04:15;;;;;;;1999.90;999.90;;;6.20;99.90;;;;;;5058913;28;21080;-71
2023/06/29 12:06:56;;;;;;;1999.90;999.90;;;6.20;99.90;;;;;;5053410;28;20045;-70
2023/06/29 12:09:30;;;;;;;1999.90;999.90;;;6.20;99.90;;;;;;5044006;28;20079;-71
2023/06/29 12:12:00;;;;;;;1999.90;999.90;;;6.10;99.90;;;;;;5047757;28;20033;-71